North Star, MI

08:24 EDT le 30 mai 2015 (GMT -0400)
MBS International | | Change Station
CLOSE
Current Station
Aéroport
Location: Saginaw,
Altitude: 669 ft
Stations météo à proximité

Alt. 669 ft 43.53 °N, 84.08 °W | Updated 31 minutes ago

Couvert
Couvert
71 ° F
Paraît 71 ° F
N
9
Vent Variable Vent de OSO

Aujourd'hui
Haut(e) -- | Bas -- ° F
--% Risque de précip.
Hier
Haut(e) -- | Bas -- ° F
Precip. -- pouce
6:02 AM 9:09 PM
Lune gibbeuse croissante, 90% visible
Pression 29.94 pouce
Visibilité 10.0 Miles terrestres
Nuages Nuageux 1400 ft
Point de rosée 66 ° F
Humidité 84%
Précipitations 0.59 pouce
Profondeur de la couche neigeuse Non disponible.
UV 1 sur 12
Pollen .80 sur 12
Qualité de l'air Non disponible.
Flu Activity Sporadic
METAR KMBS 301153Z 24008KT 10SM BKN014 22/19 A2994 RMK AO2 SLP137 70071 T02170189 10217 20206 53013

More Conditions Fewer Conditions

Pression 29.94 pouce
Visibilité 10.0 Miles terrestres
Nuages Nuageux 1400 ft
Point de rosée 66 ° F
Humidité 84%
Précipitations 0.59 pouce
Profondeur de la couche neigeuse Non disponible.
UV 1 sur 12
Pollen .80 sur 12
Qualité de l'air Non disponible.
Flu Activity Sporadic
METAR KMBS 301153Z 24008KT 10SM BKN014 22/19 A2994 RMK AO2 SLP137 70071 T02170189 10217 20206 53013

More Conditions Fewer Conditions

10-Day Weather Forecast

Almanac

Astronomie

May. 30, 2015 Lever Coucher
Temps réel
Crépuscule civil
Crépuscule nautique
Crépuscule astronomique
Lune
Durée de lumière visible
Longueur du jour
Tomorrow will be .
, % of the Moon is Illuminated

Extrêmes aujourd'hui

State Highs State Lows

Community

WunderPhotos

Upload Photos

1,825,494 Photos téléchargées !

WunderBlogs® & News

Nearby

Qualité de l'air

  Qualité de l'air Indice de la qualité de l'air Polluant
Not available.

Épaisseur de neige

Station Depth Altitude

Activité sismique

Ville Distance Mag. Time & Date
Minimum magnitude displayed is 2.5.

Températures des eaux côtières

Lieu Température

Stations

Stations météo à proximité

Emplacement de la station Température Refroidissement éolien Point de rosée Humidité Vent Precip. Alt. Mise à jour Type